createdAt,value
2022-12-08T00:00:37.928Z,250.35
2022-12-08T00:01:33.232Z,251.30
2022-12-08T00:02:28.305Z,254.82
2022-12-08T00:03:23.411Z,256.01
2022-12-08T00:04:18.302Z,255.61
2022-12-08T00:05:13.338Z,261.73
2022-12-08T00:06:08.374Z,262.36
2022-12-08T00:07:03.386Z,261.31
2022-12-08T00:07:58.525Z,260.90
2022-12-08T00:08:53.736Z,261.94
2022-12-08T00:09:48.625Z,264.90
2022-12-08T00:10:50.815Z,264.47
2022-12-08T00:11:39.744Z,266.40
2022-12-08T00:12:33.870Z,270.13
2022-12-08T00:13:28.884Z,270.35
2022-12-08T00:14:24.202Z,267.49
2022-12-08T00:15:19.196Z,266.62
2022-12-08T00:16:14.493Z,267.49
2022-12-08T00:17:09.658Z,271.25
2022-12-08T00:18:08.451Z,266.40
2022-12-08T00:19:03.553Z,267.49
2022-12-08T00:19:58.649Z,275.81
2022-12-08T00:20:53.818Z,272.15
2022-12-08T00:21:49.119Z,276.27
2022-12-08T00:22:44.384Z,275.81
2022-12-08T00:23:39.580Z,273.97
2022-12-08T00:24:34.711Z,276.51
2022-12-08T00:25:29.920Z,279.09
2022-12-08T00:26:25.732Z,279.33
2022-12-08T00:27:21.032Z,278.86
2022-12-08T00:28:16.769Z,280.05
2022-12-08T00:29:17.205Z,275.11
2022-12-08T00:30:08.397Z,272.37
2022-12-08T00:31:03.055Z,270.58
2022-12-08T00:31:58.182Z,271.92
2022-12-08T00:32:53.375Z,267.27
2022-12-08T00:33:49.772Z,268.14
2022-12-08T00:34:44.927Z,262.99
2022-12-08T00:35:43.243Z,261.10
2022-12-08T00:36:36.042Z,257.42
2022-12-08T00:37:31.081Z,254.82
2022-12-08T00:38:26.893Z,247.70
2022-12-08T00:39:22.067Z,243.65
2022-12-08T00:40:17.799Z,242.75
2022-12-08T00:41:12.923Z,239.74
2022-12-08T00:42:08.232Z,236.62
2022-12-08T00:43:03.935Z,235.44
2022-12-08T00:43:59.155Z,236.11
2022-12-08T00:44:54.290Z,233.10
2022-12-08T00:45:50.693Z,233.59
2022-12-08T00:46:45.838Z,231.45
2022-12-08T00:47:41.719Z,232.43
2022-12-08T00:48:36.846Z,231.29
2022-12-08T00:49:32.029Z,230.15
2022-12-08T00:50:27.755Z,230.31
2022-12-08T00:51:22.943Z,232.43
2022-12-08T00:52:18.780Z,233.59
2022-12-08T00:53:13.964Z,235.10
2022-12-08T00:54:09.276Z,236.11
2022-12-08T00:55:05.044Z,236.11
2022-12-08T00:56:00.953Z,234.43
2022-12-08T00:56:55.574Z,230.64
2022-12-08T00:57:50.663Z,223.72
2022-12-08T00:58:45.713Z,220.86
2022-12-08T00:59:40.793Z,222.65
2022-12-08T01:00:35.834Z,224.33
2022-12-08T01:01:30.890Z,228.39
2022-12-08T01:02:25.961Z,229.19
2022-12-08T01:03:21.072Z,232.27
2022-12-08T01:04:21.567Z,236.62
2022-12-08T01:05:16.584Z,238.17
2022-12-08T01:06:11.897Z,238.52
2022-12-08T01:07:07.663Z,238.00
2022-12-08T01:08:03.020Z,233.43
2022-12-08T01:08:58.160Z,227.12
2022-12-08T01:09:54.577Z,219.97
2022-12-08T01:10:49.766Z,218.07
2022-12-08T01:11:45.545Z,214.79
2022-12-08T01:12:40.655Z,213.53
2022-12-08T01:13:36.107Z,210.65
2022-12-08T01:14:31.697Z,209.97
2022-12-08T01:15:27.027Z,210.51
2022-12-08T01:16:22.822Z,210.92
2022-12-08T01:17:17.993Z,211.74
2022-12-08T01:18:13.284Z,210.24
2022-12-08T01:19:09.325Z,211.74
2022-12-08T01:20:04.398Z,212.70
2022-12-08T01:20:59.454Z,213.53
2022-12-08T01:21:56.121Z,212.42
2022-12-08T01:22:51.347Z,214.50
2022-12-08T01:23:47.053Z,214.64
2022-12-08T01:24:42.341Z,212.97
2022-12-08T01:25:37.510Z,210.78
2022-12-08T01:26:32.818Z,209.97
2022-12-08T01:27:28.078Z,210.51
2022-12-08T01:28:24.631Z,211.74
2022-12-08T01:29:19.782Z,214.08
2022-12-08T01:30:15.701Z,216.06
2022-12-08T01:31:10.844Z,219.53
2022-12-08T01:32:06.355Z,224.95
2022-12-08T01:33:01.956Z,228.07
2022-12-08T01:33:57.137Z,231.94
2022-12-08T01:34:52.994Z,230.31
2022-12-08T01:35:48.154Z,232.60
2022-12-08T01:36:43.484Z,233.43
2022-12-08T01:37:39.110Z,233.26
2022-12-08T01:38:34.268Z,233.59
2022-12-08T01:39:29.421Z,234.76
2022-12-08T01:40:25.755Z,234.93
2022-12-08T01:41:21.103Z,238.00
2022-12-08T01:42:16.802Z,239.56
2022-12-08T01:43:12.089Z,240.62
2022-12-08T01:44:07.247Z,240.44
2022-12-08T01:45:02.412Z,240.79
2022-12-08T01:45:57.734Z,240.79
2022-12-08T01:46:52.959Z,243.83
2022-12-08T01:47:48.142Z,245.48
2022-12-08T01:48:43.347Z,246.03
2022-12-08T01:49:39.038Z,245.66
2022-12-08T01:50:34.339Z,244.02
2022-12-08T01:51:29.538Z,243.47
2022-12-08T01:52:24.837Z,243.83
2022-12-08T01:53:19.876Z,240.79
2022-12-08T01:54:14.907Z,244.20
2022-12-08T01:55:09.895Z,244.38
2022-12-08T01:56:04.950Z,246.21
2022-12-08T01:56:59.985Z,248.07
2022-12-08T01:57:55.015Z,248.26
2022-12-08T01:58:50.078Z,248.07
2022-12-08T01:59:45.242Z,252.66
2022-12-08T02:00:40.345Z,255.81
2022-12-08T02:01:35.470Z,257.62
2022-12-08T02:02:30.528Z,259.45
2022-12-08T02:03:25.492Z,261.73
2022-12-08T02:04:20.540Z,264.47
2022-12-08T02:05:15.605Z,264.47
2022-12-08T02:06:10.618Z,264.68
2022-12-08T02:07:08.138Z,264.47
2022-12-08T02:08:00.750Z,265.54
2022-12-08T02:08:55.870Z,265.33
2022-12-08T02:09:50.866Z,266.62
2022-12-08T02:10:45.913Z,267.71
2022-12-08T02:11:40.937Z,264.47
2022-12-08T02:12:36.086Z,261.31
2022-12-08T02:13:31.127Z,260.07
2022-12-08T02:14:26.257Z,261.10
2022-12-08T02:15:21.499Z,262.36
2022-12-08T02:16:17.277Z,262.99
2022-12-08T02:17:12.482Z,263.62
2022-12-08T02:18:07.627Z,263.83
2022-12-08T02:19:29.800Z,266.19
2022-12-08T02:20:00.376Z,266.62
2022-12-08T02:20:55.243Z,265.33
2022-12-08T02:21:50.356Z,264.68
2022-12-08T02:22:45.579Z,264.26
2022-12-08T02:23:41.256Z,261.52
2022-12-08T02:24:36.451Z,260.90
2022-12-08T02:25:32.170Z,260.48
2022-12-08T02:26:27.323Z,261.10
2022-12-08T02:27:22.648Z,261.94
2022-12-08T02:28:18.511Z,261.10
2022-12-08T02:29:13.693Z,262.36
2022-12-08T02:30:09.000Z,261.94
2022-12-08T02:31:05.337Z,261.52
2022-12-08T02:32:00.541Z,263.62
2022-12-08T02:32:56.255Z,262.78
2022-12-08T02:33:51.424Z,264.05
2022-12-08T02:34:46.576Z,265.11
2022-12-08T02:35:42.490Z,266.40
2022-12-08T02:36:37.664Z,265.33
2022-12-08T02:37:33.677Z,266.19
2022-12-08T02:38:28.703Z,264.68
2022-12-08T02:39:24.149Z,267.49
2022-12-08T02:40:19.917Z,268.58
2022-12-08T02:41:15.096Z,269.69
2022-12-08T02:42:10.362Z,271.70
2022-12-08T02:43:06.793Z,271.70
2022-12-08T02:44:01.952Z,273.51
2022-12-08T02:44:57.806Z,274.42
2022-12-08T02:45:52.996Z,278.38
2022-12-08T02:46:48.386Z,276.97
2022-12-08T02:47:43.972Z,278.38
2022-12-08T02:48:39.301Z,277.91
2022-12-08T02:49:35.041Z,281.25
2022-12-08T02:50:30.166Z,284.42
2022-12-08T02:51:25.459Z,286.40
2022-12-08T02:52:21.219Z,285.16
2022-12-08T02:53:16.353Z,284.42
2022-12-08T02:54:11.488Z,272.60
2022-12-08T02:55:07.839Z,266.84
2022-12-08T02:56:02.999Z,262.57
2022-12-08T02:56:58.782Z,260.69
2022-12-08T02:57:54.066Z,265.33
2022-12-08T02:58:49.250Z,271.47
2022-12-08T02:59:45.067Z,277.68
2022-12-08T03:00:40.168Z,280.52
2022-12-08T03:01:35.482Z,285.90
2022-12-08T03:02:31.962Z,286.65
2022-12-08T03:03:27.074Z,289.94
2022-12-08T03:04:22.204Z,293.05
2022-12-08T03:05:18.623Z,294.90
2022-12-08T03:06:13.733Z,302.23
2022-12-08T03:07:09.570Z,303.91
2022-12-08T03:08:04.771Z,304.19
2022-12-08T03:08:59.904Z,307.61
2022-12-08T03:09:55.751Z,309.94
2022-12-08T03:10:51.062Z,312.00
2022-12-08T03:11:46.889Z,312.89
2022-12-08T03:12:42.009Z,317.13
2022-12-08T03:13:37.371Z,318.05
2022-12-08T03:14:33.255Z,321.16
2022-12-08T03:15:28.421Z,325.62
2022-12-08T03:16:23.864Z,324.34
2022-12-08T03:17:18.804Z,329.55
2022-12-08T03:18:14.087Z,330.21
2022-12-08T03:19:09.128Z,329.55
2022-12-08T03:20:04.503Z,331.21
2022-12-08T03:20:59.190Z,330.55
2022-12-08T03:21:54.267Z,331.88
2022-12-08T03:22:49.407Z,333.23
2022-12-08T03:23:44.455Z,333.91
2022-12-08T03:24:39.499Z,335.27
2022-12-08T03:25:34.638Z,336.30
2022-12-08T03:26:29.670Z,335.96
2022-12-08T03:27:24.693Z,337.00
2022-12-08T03:28:19.749Z,335.27
2022-12-08T03:29:14.770Z,337.69
2022-12-08T03:30:09.827Z,342.98
2022-12-08T03:31:04.947Z,345.51
2022-12-08T03:31:59.941Z,341.91
2022-12-08T03:32:54.986Z,345.51
2022-12-08T03:33:50.010Z,344.79
2022-12-08T03:34:45.041Z,349.19
2022-12-08T03:35:40.157Z,345.15
2022-12-08T03:36:35.179Z,351.43
2022-12-08T03:37:30.219Z,351.81
2022-12-08T03:38:25.351Z,356.01
2022-12-08T03:39:22.208Z,356.01
2022-12-08T03:40:17.354Z,359.52
2022-12-08T03:41:12.530Z,361.90
2022-12-08T03:42:07.810Z,365.12
2022-12-08T03:43:02.828Z,364.31
2022-12-08T03:43:58.132Z,363.50
2022-12-08T03:44:53.286Z,360.31
2022-12-08T03:45:48.555Z,362.70
2022-12-08T03:46:43.707Z,360.31
2022-12-08T03:47:38.903Z,361.90
2022-12-08T03:48:34.034Z,358.73
2022-12-08T03:49:29.477Z,358.34
2022-12-08T03:50:24.444Z,358.34
2022-12-08T03:51:19.628Z,359.13
2022-12-08T03:52:14.797Z,358.73
2022-12-08T03:53:09.949Z,355.24
2022-12-08T03:54:05.238Z,358.73
2022-12-08T03:55:00.410Z,356.78
2022-12-08T03:55:55.544Z,361.50
2022-12-08T03:56:50.720Z,364.71
2022-12-08T03:57:45.997Z,367.99
2022-12-08T03:58:41.279Z,368.40
2022-12-08T03:59:36.419Z,370.06
2022-12-08T04:00:31.701Z,369.64
2022-12-08T04:01:26.919Z,370.90
2022-12-08T04:02:22.140Z,370.06
2022-12-08T04:03:17.232Z,370.06
2022-12-08T04:04:12.457Z,368.81
2022-12-08T04:05:07.461Z,365.93
2022-12-08T04:06:02.595Z,368.81
2022-12-08T04:06:57.613Z,351.81
2022-12-08T04:07:52.723Z,309.94
2022-12-08T04:08:47.656Z,268.14
2022-12-08T04:09:42.726Z,243.65
2022-12-08T04:10:37.813Z,229.51
2022-12-08T04:11:32.893Z,219.53
2022-12-08T04:12:27.956Z,214.36
2022-12-08T04:13:23.193Z,221.75
2022-12-08T04:14:18.275Z,224.64
2022-12-08T04:15:13.333Z,227.91
2022-12-08T04:16:08.558Z,235.94
2022-12-08T04:17:03.490Z,247.33
2022-12-08T04:17:58.559Z,259.86
2022-12-08T04:18:53.649Z,272.83
2022-12-08T04:19:48.708Z,286.65
2022-12-08T04:20:43.791Z,289.69
2022-12-08T04:21:38.846Z,298.93
2022-12-08T04:22:33.907Z,306.75
2022-12-08T04:23:28.961Z,313.79
2022-12-08T04:24:24.156Z,322.74
2022-12-08T04:25:19.381Z,326.92
2022-12-08T04:26:14.771Z,324.66
2022-12-08T04:27:09.962Z,321.48
2022-12-08T04:28:05.201Z,324.98
2022-12-08T04:29:00.423Z,330.55
2022-12-08T04:29:55.644Z,337.69
2022-12-08T04:30:50.886Z,342.98
2022-12-08T04:31:46.156Z,344.79
2022-12-08T04:32:47.114Z,349.19
2022-12-08T04:33:37.598Z,352.19
2022-12-08T04:34:31.791Z,352.57
2022-12-08T04:35:26.981Z,351.06
2022-12-08T04:36:22.165Z,346.61
2022-12-08T04:37:17.334Z,337.00
2022-12-08T04:38:12.357Z,315.60
2022-12-08T04:39:07.510Z,299.20
2022-12-08T04:40:02.814Z,286.65
2022-12-08T04:40:57.679Z,280.05
2022-12-08T04:41:52.727Z,281.25
2022-12-08T04:42:47.807Z,280.77
2022-12-08T04:43:42.798Z,277.68
2022-12-08T04:44:37.967Z,281.01
2022-12-08T04:45:32.926Z,288.67
2022-12-08T04:46:28.018Z,293.31
2022-12-08T04:47:22.918Z,291.75
2022-12-08T04:48:18.033Z,264.05
2022-12-08T04:49:13.003Z,240.97
2022-12-08T04:50:08.024Z,234.93
2022-12-08T04:51:03.113Z,242.93
2022-12-08T04:51:58.120Z,258.02
2022-12-08T04:52:53.169Z,274.88
2022-12-08T04:53:48.203Z,288.42
2022-12-08T04:54:43.265Z,298.38
2022-12-08T04:55:38.361Z,312.00
2022-12-08T04:56:33.565Z,322.74
2022-12-08T04:57:28.794Z,332.89
2022-12-08T04:58:24.018Z,344.42
2022-12-08T04:59:19.098Z,346.24
2022-12-08T05:00:14.178Z,343.34
2022-12-08T05:01:09.319Z,345.15
2022-12-08T05:02:04.523Z,348.82
2022-12-08T05:02:59.599Z,356.40
2022-12-08T05:03:54.526Z,362.30
2022-12-08T05:04:50.843Z,365.12
2022-12-08T05:05:45.920Z,367.99
2022-12-08T05:06:41.134Z,362.30
2022-12-08T05:07:36.389Z,361.10
2022-12-08T05:08:31.856Z,355.62
2022-12-08T05:09:26.971Z,356.01
2022-12-08T05:10:22.275Z,349.19
2022-12-08T05:11:17.195Z,332.89
2022-12-08T05:12:12.318Z,319.60
2022-12-08T05:13:07.373Z,311.11
2022-12-08T05:14:02.484Z,310.82
2022-12-08T05:14:57.681Z,310.23
2022-12-08T05:15:52.887Z,308.48
2022-12-08T05:16:47.970Z,307.61
2022-12-08T05:17:42.979Z,308.77
2022-12-08T05:18:38.092Z,308.77
2022-12-08T05:19:33.201Z,308.19
2022-12-08T05:20:28.259Z,304.76
2022-12-08T05:21:23.487Z,305.04
2022-12-08T05:22:18.713Z,308.48
2022-12-08T05:23:13.808Z,309.35
2022-12-08T05:24:08.798Z,311.11
2022-12-08T05:25:07.136Z,307.90
2022-12-08T05:26:02.241Z,259.66
2022-12-08T05:26:57.212Z,250.35
2022-12-08T05:28:01.682Z,229.35
2022-12-08T05:28:48.399Z,233.43
2022-12-08T05:29:42.439Z,240.44
2022-12-08T05:30:37.535Z,248.45
2022-12-08T05:31:32.735Z,251.50
2022-12-08T05:32:27.616Z,251.30
2022-12-08T05:33:22.671Z,257.01
2022-12-08T05:34:17.829Z,264.26
2022-12-08T05:35:13.464Z,267.27
2022-12-08T05:36:08.823Z,273.74
2022-12-08T05:37:04.049Z,279.81
2022-12-08T05:37:59.269Z,281.25
2022-12-08T05:38:54.647Z,279.33
2022-12-08T05:39:49.905Z,276.97
2022-12-08T05:40:45.119Z,276.27
2022-12-08T05:41:40.460Z,271.47
2022-12-08T05:42:35.597Z,270.13
2022-12-08T05:43:30.816Z,271.70
2022-12-08T05:44:26.077Z,271.70
2022-12-08T05:45:21.331Z,273.97
2022-12-08T05:46:16.638Z,274.65
2022-12-08T05:47:11.787Z,273.28
2022-12-08T05:48:07.015Z,272.37
2022-12-08T05:49:02.425Z,278.38
2022-12-08T05:49:57.647Z,277.68
2022-12-08T05:50:52.881Z,273.74
2022-12-08T05:51:48.254Z,273.28
2022-12-08T05:52:43.395Z,274.88
2022-12-08T05:53:38.635Z,221.75
2022-12-08T05:54:33.876Z,216.63
2022-12-08T05:55:29.372Z,207.98
2022-12-08T05:56:24.785Z,205.89
2022-12-08T05:57:19.727Z,203.46
2022-12-08T05:58:14.987Z,201.96
2022-12-08T05:59:10.216Z,206.02
2022-12-08T06:00:05.652Z,206.15
2022-12-08T06:01:00.693Z,208.11
2022-12-08T06:01:56.002Z,208.90
2022-12-08T06:02:51.354Z,212.01
2022-12-08T06:03:46.694Z,215.07
2022-12-08T06:04:41.809Z,219.09
2022-12-08T06:05:37.105Z,216.06
2022-12-08T06:06:32.396Z,209.44
2022-12-08T06:07:27.604Z,205.76
2022-12-08T06:08:23.081Z,203.97
2022-12-08T06:09:20.148Z,198.42
2022-12-08T06:10:15.424Z,193.62
2022-12-08T06:11:10.772Z,199.99
2022-12-08T06:12:06.040Z,207.32
2022-12-08T06:13:01.254Z,212.83
2022-12-08T06:13:56.563Z,219.53
2022-12-08T06:14:51.605Z,214.22
2022-12-08T06:15:46.584Z,198.18
2022-12-08T06:16:41.612Z,194.31
2022-12-08T06:17:36.598Z,189.04
2022-12-08T06:18:32.942Z,193.39
2022-12-08T06:19:26.702Z,203.97
2022-12-08T06:20:21.649Z,212.28
2022-12-08T06:21:17.879Z,214.64
2022-12-08T06:22:12.956Z,213.80
2022-12-08T06:23:08.222Z,209.71
2022-12-08T06:24:03.225Z,198.54
2022-12-08T06:24:58.317Z,198.54
2022-12-08T06:25:53.318Z,201.71
2022-12-08T06:26:48.448Z,208.24
2022-12-08T06:27:43.425Z,211.74
2022-12-08T06:28:38.649Z,214.22
2022-12-08T06:29:33.607Z,218.07
2022-12-08T06:30:28.634Z,222.81
2022-12-08T06:31:23.668Z,228.07
2022-12-08T06:32:20.816Z,233.43
2022-12-08T06:33:14.718Z,239.39
2022-12-08T06:34:08.801Z,243.11
2022-12-08T06:35:04.080Z,247.33
2022-12-08T06:35:59.431Z,249.02
2022-12-08T06:36:55.202Z,255.01
2022-12-08T06:37:50.532Z,255.81
2022-12-08T06:38:46.408Z,257.01
2022-12-08T06:39:41.592Z,248.26
2022-12-08T06:40:36.870Z,239.74
2022-12-08T06:41:32.628Z,232.27
2022-12-08T06:42:27.917Z,233.10
2022-12-08T06:43:23.383Z,208.64
2022-12-08T06:44:19.555Z,189.70
2022-12-08T06:45:14.845Z,185.20
2022-12-08T06:46:10.667Z,186.26
2022-12-08T06:47:05.995Z,192.03
2022-12-08T06:48:01.434Z,197.35
2022-12-08T06:48:57.080Z,198.78
2022-12-08T06:49:52.369Z,202.09
2022-12-08T06:50:48.185Z,189.92
2022-12-08T06:51:43.532Z,176.03
2022-12-08T06:52:47.342Z,181.58
2022-12-08T06:53:35.712Z,188.72
2022-12-08T06:54:30.180Z,191.47
2022-12-08T06:55:57.349Z,199.51
2022-12-08T06:56:22.927Z,207.98
2022-12-08T06:57:17.231Z,212.70
2022-12-08T06:58:13.166Z,217.35
2022-12-08T06:59:08.481Z,220.12
2022-12-08T07:00:04.291Z,220.56
2022-12-08T07:00:59.696Z,225.56
2022-12-08T07:01:55.123Z,226.50
2022-12-08T07:02:50.769Z,228.87
2022-12-08T07:03:46.199Z,232.27
2022-12-08T07:04:41.637Z,217.78
2022-12-08T07:05:37.406Z,203.34
2022-12-08T07:06:32.703Z,199.51
2022-12-08T07:07:28.147Z,197.46
2022-12-08T07:08:24.722Z,197.82
2022-12-08T07:09:20.078Z,199.99
2022-12-08T07:10:15.729Z,203.84
2022-12-08T07:11:14.129Z,209.71
2022-12-08T07:12:07.969Z,216.63
2022-12-08T07:13:02.478Z,225.10
2022-12-08T07:13:58.288Z,230.96
2022-12-08T07:14:53.725Z,234.60
2022-12-08T07:15:49.138Z,237.31
2022-12-08T07:16:44.913Z,242.04
2022-12-08T07:17:40.297Z,243.29
2022-12-08T07:18:36.149Z,245.29
2022-12-08T07:19:31.429Z,246.40
2022-12-08T07:20:26.836Z,248.45
2022-12-08T07:21:22.551Z,248.45
2022-12-08T07:22:17.970Z,245.84
2022-12-08T07:23:13.476Z,236.80
2022-12-08T07:24:09.737Z,217.35
2022-12-08T07:25:05.127Z,203.34
2022-12-08T07:26:01.130Z,202.21
2022-12-08T07:26:56.541Z,203.21
2022-12-08T07:27:51.954Z,203.21
2022-12-08T07:28:47.687Z,206.28
2022-12-08T07:29:43.094Z,207.85
2022-12-08T07:30:39.024Z,210.51
2022-12-08T07:31:34.246Z,211.05
2022-12-08T07:32:29.661Z,216.63
2022-12-08T07:33:24.701Z,217.35
2022-12-08T07:34:19.720Z,220.86
2022-12-08T07:35:14.767Z,224.95
2022-12-08T07:36:09.826Z,224.79
2022-12-08T07:37:04.912Z,220.12
2022-12-08T07:37:59.967Z,213.67
2022-12-08T07:38:55.029Z,204.35
2022-12-08T07:39:50.048Z,192.82
2022-12-08T07:40:45.129Z,190.14
2022-12-08T07:41:42.728Z,193.96
2022-12-08T07:42:37.782Z,199.51
2022-12-08T07:43:32.854Z,204.22
2022-12-08T07:44:27.896Z,209.17
2022-12-08T07:45:26.918Z,211.33
2022-12-08T07:46:19.132Z,213.11
2022-12-08T07:47:13.150Z,200.11
2022-12-08T07:48:08.647Z,196.75
2022-12-08T07:49:04.115Z,193.16
2022-12-08T07:49:59.609Z,196.05
2022-12-08T07:50:55.113Z,200.11
2022-12-08T07:51:50.642Z,206.54
2022-12-08T07:52:50.017Z,213.39
2022-12-08T07:53:51.568Z,215.91
2022-12-08T07:54:42.054Z,218.79
2022-12-08T07:55:36.765Z,218.79
2022-12-08T07:56:32.274Z,220.71
2022-12-08T07:57:27.792Z,223.72
2022-12-08T07:58:23.879Z,224.95
2022-12-08T07:59:18.989Z,219.53
2022-12-08T08:00:14.117Z,212.70
2022-12-08T08:01:09.269Z,209.71
2022-12-08T08:02:22.818Z,209.71
2022-12-08T08:03:00.347Z,210.11
2022-12-08T08:03:54.414Z,212.56
2022-12-08T08:04:49.569Z,211.33
2022-12-08T08:05:45.339Z,212.28
2022-12-08T08:06:40.738Z,205.50
2022-12-08T08:07:36.281Z,205.12
2022-12-08T08:08:32.572Z,205.63
2022-12-08T08:09:27.952Z,206.15
2022-12-08T08:10:23.831Z,209.57
2022-12-08T08:11:21.657Z,213.11
2022-12-08T08:12:31.784Z,216.91
2022-12-08T08:13:10.852Z,219.09
2022-12-08T08:14:04.991Z,137.57
2022-12-08T08:15:04.640Z,73.23
2022-12-08T08:16:00.366Z,77.23
2022-12-08T08:16:55.519Z,86.61
2022-12-08T08:17:51.284Z,97.70
2022-12-08T08:18:46.768Z,111.32
2022-12-08T08:19:42.220Z,128.07
2022-12-08T08:20:38.807Z,143.36
2022-12-08T08:21:45.348Z,157.73
2022-12-08T08:22:30.879Z,169.76
2022-12-08T08:23:25.250Z,178.67
2022-12-08T08:24:20.682Z,183.58
2022-12-08T08:25:16.442Z,185.20
2022-12-08T08:26:11.889Z,191.92
2022-12-08T08:27:07.748Z,192.15
2022-12-08T08:28:03.081Z,193.28
2022-12-08T08:28:58.572Z,193.28
2022-12-08T08:29:54.417Z,187.85
2022-12-08T08:30:49.865Z,185.83
2022-12-08T08:31:45.186Z,185.21
2022-12-08T08:32:41.744Z,184.60
2022-12-08T08:33:37.177Z,185.21
2022-12-08T08:34:33.033Z,185.21
2022-12-08T08:35:28.603Z,183.78
2022-12-08T08:36:24.051Z,186.04
2022-12-08T08:37:19.810Z,185.42
2022-12-08T08:38:15.271Z,185.31
2022-12-08T08:39:11.140Z,184.99
2022-12-08T08:40:06.670Z,186.79
2022-12-08T08:41:02.368Z,188.29
2022-12-08T08:41:57.999Z,188.72
2022-12-08T08:42:53.188Z,190.69
2022-12-08T08:43:48.759Z,184.99
2022-12-08T08:44:44.933Z,179.43
2022-12-08T08:45:40.337Z,160.61
2022-12-08T08:46:36.303Z,152.26
2022-12-08T08:47:31.628Z,145.36
2022-12-08T08:48:27.150Z,148.20
2022-12-08T08:49:22.894Z,154.80
2022-12-08T08:50:18.378Z,158.93
2022-12-08T08:51:14.124Z,167.04
2022-12-08T08:52:09.488Z,172.39
2022-12-08T08:53:04.955Z,174.19
2022-12-08T08:54:00.683Z,171.51
2022-12-08T08:54:56.148Z,169.42
2022-12-08T08:55:51.607Z,167.54
2022-12-08T08:56:47.854Z,168.90
2022-12-08T08:57:43.234Z,174.37
2022-12-08T08:58:39.062Z,176.96
2022-12-08T08:59:34.483Z,181.98
2022-12-08T09:00:29.955Z,185.31
2022-12-08T09:01:25.724Z,188.29
2022-12-08T09:02:21.135Z,185.42
2022-12-08T09:03:16.762Z,182.98
2022-12-08T09:04:12.014Z,181.39
2022-12-08T09:05:08.005Z,177.15
2022-12-08T09:06:03.421Z,171.15
2022-12-08T09:06:58.734Z,164.90
2022-12-08T09:07:55.354Z,160.46
2022-12-08T09:08:50.710Z,162.80
2022-12-08T09:09:46.595Z,161.70
2022-12-08T09:10:42.043Z,156.54
2022-12-08T09:11:37.517Z,158.63
2022-12-08T09:12:33.247Z,161.08
2022-12-08T09:13:28.694Z,160.92
2022-12-08T09:14:24.562Z,162.96
2022-12-08T09:15:19.893Z,160.61
2022-12-08T09:16:15.426Z,156.40
2022-12-08T09:17:11.117Z,154.80
2022-12-08T09:18:06.513Z,156.54
2022-12-08T09:19:02.091Z,158.78
2022-12-08T09:19:57.561Z,154.51
2022-12-08T09:20:53.018Z,153.24
2022-12-08T09:21:49.650Z,150.07
2022-12-08T09:22:45.108Z,147.29
2022-12-08T09:23:40.597Z,147.55
2022-12-08T09:24:37.126Z,151.57
2022-12-08T09:25:32.554Z,151.98
2022-12-08T09:26:28.034Z,152.40
2022-12-08T09:27:23.725Z,153.80
2022-12-08T09:28:19.238Z,148.20
2022-12-08T09:29:14.687Z,143.86
2022-12-08T09:30:10.123Z,142.75
2022-12-08T09:31:05.291Z,139.29
2022-12-08T09:32:00.220Z,110.44
2022-12-08T09:32:55.235Z,111.70
2022-12-08T09:33:50.343Z,122.16
2022-12-08T09:34:49.019Z,130.37
2022-12-08T09:35:41.416Z,136.78
2022-12-08T09:36:35.486Z,140.70
2022-12-08T09:37:30.529Z,142.63
2022-12-08T09:38:25.566Z,143.24
2022-12-08T09:39:20.616Z,145.11
2022-12-08T09:40:15.660Z,146.64
2022-12-08T09:41:10.771Z,148.73
2022-12-08T09:42:05.789Z,148.07
2022-12-08T09:43:00.850Z,149.00
2022-12-08T09:43:55.876Z,147.81
2022-12-08T09:44:50.958Z,146.25
2022-12-08T09:45:46.029Z,146.25
2022-12-08T09:46:41.134Z,146.38
2022-12-08T09:47:36.559Z,148.73
2022-12-08T09:48:31.243Z,147.94
2022-12-08T09:49:26.294Z,150.47
2022-12-08T09:50:21.462Z,150.20
2022-12-08T09:51:16.403Z,151.84
2022-12-08T09:52:11.411Z,152.68
2022-12-08T09:53:07.473Z,152.40
2022-12-08T09:54:02.526Z,152.54
2022-12-08T09:54:57.571Z,153.52
2022-12-08T09:55:52.644Z,154.23
2022-12-08T09:56:47.679Z,153.10
2022-12-08T09:57:42.714Z,154.51
2022-12-08T09:58:37.799Z,154.09
2022-12-08T09:59:32.862Z,155.96
2022-12-08T10:00:28.052Z,157.43
2022-12-08T10:01:23.189Z,161.08
2022-12-08T10:02:18.167Z,161.08
2022-12-08T10:03:16.924Z,160.61
2022-12-08T10:04:09.549Z,162.49
2022-12-08T10:05:05.206Z,162.17
2022-12-08T10:06:00.440Z,162.65
2022-12-08T10:06:55.872Z,150.74
2022-12-08T10:07:51.024Z,148.60
2022-12-08T10:08:45.932Z,149.66
2022-12-08T10:09:40.999Z,152.82
2022-12-08T10:10:36.051Z,155.52
2022-12-08T10:11:31.095Z,159.84
2022-12-08T10:12:26.262Z,163.92
2022-12-08T10:13:21.312Z,163.76
2022-12-08T10:14:16.326Z,164.57
2022-12-08T10:15:11.403Z,165.55
2022-12-08T10:16:06.468Z,166.54
2022-12-08T10:17:01.606Z,167.54
2022-12-08T10:17:56.822Z,165.88
2022-12-08T10:18:52.284Z,165.22
2022-12-08T10:19:47.871Z,165.22
2022-12-08T10:20:43.329Z,165.71
2022-12-08T10:21:38.777Z,167.71
2022-12-08T10:22:35.302Z,168.22
2022-12-08T10:23:29.698Z,168.39
2022-12-08T10:24:25.128Z,169.93
2022-12-08T10:25:20.582Z,170.28
2022-12-08T10:26:16.033Z,168.73
2022-12-08T10:27:11.585Z,166.04
2022-12-08T10:28:07.080Z,163.12
2022-12-08T10:29:02.554Z,147.42
2022-12-08T10:29:58.037Z,137.23
2022-12-08T10:30:53.593Z,137.46
2022-12-08T10:31:52.455Z,140.00
2022-12-08T10:32:47.750Z,143.36
2022-12-08T10:33:43.195Z,147.42
2022-12-08T10:34:38.792Z,151.84
2022-12-08T10:35:34.224Z,155.67
2022-12-08T10:36:29.695Z,157.13
2022-12-08T10:37:25.315Z,158.18
2022-12-08T10:38:20.751Z,160.46
2022-12-08T10:39:16.203Z,162.49
2022-12-08T10:40:11.934Z,159.54
2022-12-08T10:41:07.262Z,156.25
2022-12-08T10:42:02.688Z,155.09
2022-12-08T10:42:58.308Z,153.38
2022-12-08T10:43:53.751Z,153.38
2022-12-08T10:44:49.190Z,155.09
2022-12-08T10:45:44.246Z,155.09
2022-12-08T10:46:39.316Z,156.69
2022-12-08T10:47:34.312Z,159.54
2022-12-08T10:48:29.533Z,159.99
2022-12-08T10:49:24.538Z,160.46
2022-12-08T10:50:19.660Z,158.48
2022-12-08T10:51:14.736Z,158.93
2022-12-08T10:52:09.786Z,159.54
2022-12-08T10:53:04.846Z,158.03
2022-12-08T10:53:59.894Z,156.54
2022-12-08T10:54:56.387Z,157.13
2022-12-08T10:55:51.465Z,157.13
2022-12-08T10:56:46.527Z,158.93
2022-12-08T10:57:41.607Z,158.48
2022-12-08T10:58:37.024Z,158.32
2022-12-08T10:59:32.457Z,159.54
2022-12-08T11:00:28.349Z,161.08
2022-12-08T11:01:23.572Z,161.39
2022-12-08T11:02:19.111Z,162.01
2022-12-08T11:03:14.519Z,162.33
2022-12-08T11:04:10.012Z,158.03
2022-12-08T11:05:05.462Z,154.51
2022-12-08T11:06:07.099Z,153.38
2022-12-08T11:06:57.569Z,156.25
2022-12-08T11:07:51.592Z,155.67
2022-12-08T11:08:46.690Z,156.10
2022-12-08T11:09:41.748Z,158.18
2022-12-08T11:10:38.587Z,160.15
2022-12-08T11:11:33.622Z,162.33
2022-12-08T11:12:28.696Z,162.65
2022-12-08T11:13:23.739Z,163.60
2022-12-08T11:14:18.762Z,163.60
2022-12-08T11:15:13.930Z,163.28
2022-12-08T11:16:09.091Z,159.23
2022-12-08T11:17:04.047Z,155.38
2022-12-08T11:17:59.140Z,152.96
2022-12-08T11:18:54.156Z,151.15
2022-12-08T11:19:50.198Z,150.47
2022-12-08T11:20:44.287Z,149.00
2022-12-08T11:21:39.310Z,149.26
2022-12-08T11:22:34.331Z,151.02
2022-12-08T11:23:29.441Z,153.52
2022-12-08T11:24:25.949Z,153.66
2022-12-08T11:25:21.551Z,155.38
2022-12-08T11:26:17.009Z,157.73
2022-12-08T11:27:12.458Z,160.15
2022-12-08T11:28:08.019Z,162.17
2022-12-08T11:29:03.514Z,164.09
2022-12-08T11:29:59.034Z,166.54
2022-12-08T11:30:54.493Z,168.56